Time;durP1;ratioP1;P1;durP2;ratioP2;P2;SDS_P1;SDS_P2;PMS_P1;PMS_P2;Temp;Humidity;BMP_temperature;BMP_pressure;BME280_temperature;BME280_humidity;BME280_pressure;Samples;Min_cycle;Max_cycle;Signal;HPM_P1;HPM_P2
2021/05/26 00:01:57;;;;;;;5.85;2.88;;;10.50;70.60;;;;;;5059763;28;20020;-65
2021/05/26 00:04:22;;;;;;;6.72;3.08;;;10.50;70.90;;;;;;5060603;28;20024;-66
2021/05/26 00:06:48;;;;;;;6.85;2.65;;;10.50;71.40;;;;;;5062160;28;20059;-65
2021/05/26 00:09:16;;;;;;;7.80;2.40;;;10.40;71.00;;;;;;5059677;28;20017;-66
2021/05/26 00:11:42;;;;;;;5.78;2.53;;;10.40;70.40;;;;;;5061297;28;20013;-66
2021/05/26 00:14:10;;;;;;;5.05;2.20;;;10.50;70.60;;;;;;5059931;28;20032;-66
2021/05/26 00:16:37;;;;;;;9.52;2.80;;;10.40;70.60;;;;;;5061709;28;20047;-66
2021/05/26 00:19:04;;;;;;;2.97;2.10;;;10.40;71.00;;;;;;5061625;28;20028;-66
2021/05/26 00:21:30;;;;;;;4.25;2.30;;;10.40;71.10;;;;;;5059228;28;20025;-65
2021/05/26 00:23:56;;;;;;;6.32;2.55;;;10.40;71.00;;;;;;5060412;28;20017;-70
2021/05/26 00:26:21;;;;;;;6.28;2.88;;;10.40;71.10;;;;;;5071355;28;20479;-67
2021/05/26 00:28:47;;;;;;;6.55;2.67;;;10.40;70.90;;;;;;5071236;28;20020;-68
2021/05/26 00:31:13;;;;;;;8.80;4.53;;;10.30;70.80;;;;;;5071120;28;20038;-68
2021/05/26 00:33:38;;;;;;;6.88;2.30;;;10.30;71.60;;;;;;5071363;28;20020;-68
2021/05/26 00:36:04;;;;;;;7.95;3.35;;;10.40;70.90;;;;;;5070987;28;20074;-67
2021/05/26 00:38:30;;;;;;;5.95;2.92;;;10.40;71.50;;;;;;5071131;28;20039;-68
2021/05/26 00:40:55;;;;;;;7.47;2.60;;;10.30;71.50;;;;;;5071285;28;20109;-67
2021/05/26 00:43:21;;;;;;;7.78;3.08;;;10.30;71.70;;;;;;5071011;28;20032;-67
2021/05/26 00:45:47;;;;;;;7.20;3.40;;;10.30;71.80;;;;;;5070675;28;20032;-66
2021/05/26 00:48:12;;;;;;;8.35;3.20;;;10.30;72.30;;;;;;5071095;28;20046;-66
2021/05/26 00:50:38;;;;;;;12.68;3.80;;;10.30;72.00;;;;;;5070727;28;20020;-69
2021/05/26 00:53:08;;;;;;;5.88;3.35;;;10.30;72.20;;;;;;5070027;28;20033;-68
2021/05/26 00:55:34;;;;;;;13.75;3.97;;;10.30;72.30;;;;;;5070728;28;20025;-68
2021/05/26 00:58:00;;;;;;;9.93;4.07;;;10.30;72.20;;;;;;5069478;28;20038;-68
2021/05/26 01:00:27;;;;;;;5.00;3.50;;;10.30;72.20;;;;;;5069199;28;20028;-67
2021/05/26 01:02:53;;;;;;;8.95;3.63;;;10.30;72.70;;;;;;5070607;28;20024;-68
2021/05/26 01:05:20;;;;;;;14.63;5.05;;;10.30;72.60;;;;;;5070771;28;20078;-68
2021/05/26 01:07:46;;;;;;;11.55;4.72;;;10.30;72.60;;;;;;5070348;28;20028;-68
2021/05/26 01:10:13;;;;;;;7.50;3.38;;;10.30;72.30;;;;;;5070489;28;20031;-67
2021/05/26 01:12:39;;;;;;;11.75;3.58;;;10.30;72.70;;;;;;5070565;28;20021;-67
2021/05/26 01:15:06;;;;;;;11.70;3.55;;;10.30;72.60;;;;;;5070346;28;20031;-68
2021/05/26 01:17:34;;;;;;;11.98;4.10;;;10.30;72.80;;;;;;5070128;28;20086;-67
2021/05/26 01:19:59;;;;;;;10.20;3.70;;;10.30;72.50;;;;;;5070175;28;20027;-68
2021/05/26 01:22:25;;;;;;;16.88;4.25;;;10.30;72.10;;;;;;5070519;28;20024;-68
2021/05/26 01:24:51;;;;;;;10.52;3.50;;;10.30;72.30;;;;;;5070215;28;20395;-67
2021/05/26 01:27:16;;;;;;;15.75;3.80;;;10.30;72.00;;;;;;5070120;28;20066;-68
2021/05/26 01:29:42;;;;;;;11.68;4.43;;;10.30;72.20;;;;;;5070445;28;20048;-67
2021/05/26 01:32:08;;;;;;;14.95;4.18;;;10.30;72.00;;;;;;5070079;28;20446;-66
2021/05/26 01:34:34;;;;;;;12.25;4.10;;;10.30;71.80;;;;;;5070225;28;20527;-66
2021/05/26 01:36:59;;;;;;;15.23;4.35;;;10.30;71.90;;;;;;5069203;28;20490;-67
2021/05/26 01:39:25;;;;;;;19.23;4.20;;;10.30;72.00;;;;;;5070280;28;20017;-69
2021/05/26 01:41:50;;;;;;;12.88;4.55;;;10.30;71.90;;;;;;5090199;28;20024;-69
2021/05/26 01:44:16;;;;;;;14.07;4.40;;;10.30;72.10;;;;;;5090666;28;20024;-69
2021/05/26 01:46:42;;;;;;;10.90;4.13;;;10.30;71.80;;;;;;5089769;28;20043;-68
2021/05/26 01:49:08;;;;;;;9.65;4.35;;;10.30;71.70;;;;;;5088938;28;20111;-69
2021/05/26 01:51:33;;;;;;;13.18;3.90;;;10.20;72.10;;;;;;5090434;28;20026;-69
2021/05/26 01:53:59;;;;;;;14.00;4.07;;;10.20;72.30;;;;;;5090004;28;20103;-68
2021/05/26 01:56:26;;;;;;;10.63;3.55;;;10.20;72.00;;;;;;5090101;28;20104;-68
2021/05/26 01:58:53;;;;;;;13.40;3.55;;;10.20;71.70;;;;;;5090343;28;20028;-69
2021/05/26 02:01:22;;;;;;;14.38;3.80;;;10.20;71.70;;;;;;5090037;28;20025;-68
2021/05/26 02:03:48;;;;;;;18.17;4.60;;;10.20;71.70;;;;;;5092438;28;20081;-68
2021/05/26 02:06:14;;;;;;;16.50;4.45;;;10.30;72.00;;;;;;5094266;28;20499;-68
2021/05/26 02:08:40;;;;;;;10.75;4.05;;;10.30;72.70;;;;;;5094428;28;20046;-68
2021/05/26 02:13:50;;;;;;;15.27;4.22;;;10.30;72.00;;;;;;5094300;28;20720;-68
2021/05/26 02:16:15;;;;;;;14.55;4.30;;;10.30;71.70;;;;;;5094261;28;20024;-67
2021/05/26 02:18:41;;;;;;;22.02;4.88;;;10.30;71.90;;;;;;5092721;28;20024;-67
2021/05/26 02:21:07;;;;;;;15.70;4.43;;;10.30;71.30;;;;;;5093815;28;20028;-67
2021/05/26 02:23:32;;;;;;;13.27;4.35;;;10.30;71.60;;;;;;5094127;28;20024;-67
2021/05/26 02:25:58;;;;;;;11.45;4.55;;;10.30;71.70;;;;;;5092475;28;20470;-68
2021/05/26 02:28:23;;;;;;;9.27;4.43;;;10.30;71.80;;;;;;5093695;28;20031;-66
2021/05/26 02:30:49;;;;;;;14.35;4.25;;;10.30;72.30;;;;;;5093925;28;20471;-67
2021/05/26 02:33:15;;;;;;;14.85;4.25;;;10.30;71.30;;;;;;5093669;28;20102;-67
2021/05/26 02:35:40;;;;;;;17.83;4.78;;;10.30;71.50;;;;;;5093701;28;20024;-68
2021/05/26 02:38:06;;;;;;;15.30;4.35;;;10.30;71.60;;;;;;5093901;28;20035;-67
2021/05/26 02:40:33;;;;;;;16.23;3.88;;;10.30;71.30;;;;;;5092295;28;20024;-68
2021/05/26 02:43:01;;;;;;;18.00;4.65;;;10.40;71.70;;;;;;5093430;28;20024;-67
2021/05/26 02:45:29;;;;;;;17.33;4.32;;;10.30;71.90;;;;;;5093594;28;20041;-67
2021/05/26 02:47:55;;;;;;;17.13;4.43;;;10.40;71.50;;;;;;5093505;28;20070;-67
2021/05/26 02:50:20;;;;;;;20.00;4.40;;;10.30;71.80;;;;;;5091841;28;20394;-67
2021/05/26 02:52:46;;;;;;;12.90;4.93;;;10.40;72.30;;;;;;5093136;28;20028;-67
2021/05/26 02:55:13;;;;;;;18.50;5.18;;;10.40;72.10;;;;;;5093488;28;20017;-67
2021/05/26 02:57:39;;;;;;;14.60;4.10;;;10.30;72.00;;;;;;5092965;28;20536;-67
2021/05/26 03:00:06;;;;;;;14.90;4.05;;;10.30;72.30;;;;;;5092937;28;20027;-68
2021/05/26 03:02:32;;;;;;;17.88;4.50;;;10.30;72.50;;;;;;5093277;28;20028;-67
2021/05/26 03:04:57;;;;;;;17.20;3.65;;;10.30;72.70;;;;;;5092985;28;20039;-67
2021/05/26 03:07:23;;;;;;;12.63;4.38;;;10.30;72.80;;;;;;5092710;28;20481;-67
2021/05/26 03:09:48;;;;;;;13.65;4.38;;;10.30;72.70;;;;;;5093247;28;20021;-68
2021/05/26 03:12:14;;;;;;;15.32;3.75;;;10.30;72.60;;;;;;5092983;28;20417;-67
2021/05/26 03:14:39;;;;;;;14.50;3.75;;;10.30;72.30;;;;;;5090816;28;20026;-68
2021/05/26 03:17:05;;;;;;;17.75;4.03;;;10.20;72.20;;;;;;5092833;28;20060;-66
2021/05/26 03:19:31;;;;;;;9.77;3.30;;;10.30;72.00;;;;;;5092697;28;20032;-67
2021/05/26 03:21:56;;;;;;;16.50;3.60;;;10.20;72.00;;;;;;5092541;28;20110;-67
2021/05/26 03:24:22;;;;;;;14.20;3.30;;;10.20;71.80;;;;;;5093096;28;20525;-67
2021/05/26 03:26:48;;;;;;;11.95;3.70;;;10.20;71.30;;;;;;5092779;28;20024;-66
2021/05/26 03:29:13;;;;;;;10.82;3.42;;;10.20;71.20;;;;;;5091427;28;20038;-66
2021/05/26 03:31:39;;;;;;;11.90;3.30;;;10.20;71.20;;;;;;5092920;28;20020;-66
2021/05/26 03:34:04;;;;;;;13.40;3.20;;;10.20;71.00;;;;;;5092437;28;20038;-66
2021/05/26 03:36:30;;;;;;;12.45;2.90;;;10.20;71.20;;;;;;5092412;28;20642;-66
2021/05/26 03:38:55;;;;;;;9.90;2.97;;;10.20;70.90;;;;;;5092580;28;20557;-66
2021/05/26 03:41:21;;;;;;;11.20;3.25;;;10.20;70.70;;;;;;5092255;28;20074;-65
2021/05/26 03:43:46;;;;;;;9.68;3.38;;;10.20;70.90;;;;;;5092243;28;20115;-67
2021/05/26 03:46:12;;;;;;;8.63;2.85;;;10.20;70.90;;;;;;5092336;28;20124;-66
2021/05/26 03:48:37;;;;;;;13.43;2.85;;;10.20;70.90;;;;;;5092237;28;20039;-67
2021/05/26 03:51:03;;;;;;;5.82;2.50;;;10.20;71.00;;;;;;5090932;28;20503;-65
2021/05/26 03:53:30;;;;;;;8.55;2.90;;;10.20;70.80;;;;;;5092444;28;20539;-66
2021/05/26 03:55:56;;;;;;;9.73;2.30;;;10.20;71.00;;;;;;5091970;28;20043;-64
2021/05/26 03:58:22;;;;;;;10.52;2.97;;;10.20;70.90;;;;;;5091997;28;20526;-64
2021/05/26 04:00:47;;;;;;;8.98;3.25;;;10.20;71.50;;;;;;5091927;28;20161;-65
2021/05/26 04:03:14;;;;;;;6.82;2.80;;;10.20;71.20;;;;;;5090019;28;20497;-65
2021/05/26 04:05:39;;;;;;;11.50;3.15;;;10.20;71.00;;;;;;5091857;28;20023;-65
2021/05/26 04:08:05;;;;;;;7.30;2.75;;;10.20;71.30;;;;;;5090725;28;20020;-65
2021/05/26 04:10:31;;;;;;;9.05;3.05;;;10.30;71.00;;;;;;5091966;28;20368;-66
2021/05/26 04:12:56;;;;;;;8.90;2.72;;;10.30;70.90;;;;;;5091674;28;20103;-66
2021/05/26 04:15:22;;;;;;;13.38;3.35;;;10.30;71.30;;;;;;5091957;28;20017;-65
2021/05/26 04:17:47;;;;;;;13.65;2.88;;;10.30;71.10;;;;;;5091686;28;20065;-66
2021/05/26 04:20:13;;;;;;;9.70;3.03;;;10.40;71.40;;;;;;5091729;28;20414;-67
2021/05/26 04:22:38;;;;;;;7.65;3.55;;;10.40;71.10;;;;;;5090569;28;20028;-66
2021/05/26 04:25:05;;;;;;;8.15;3.10;;;10.40;71.50;;;;;;5091624;28;20035;-67
2021/05/26 04:27:30;;;;;;;8.18;2.92;;;10.40;71.80;;;;;;5090271;28;20390;-67
2021/05/26 04:29:56;;;;;;;13.27;3.78;;;10.40;71.50;;;;;;5091661;28;20609;-67
2021/05/26 04:32:22;;;;;;;11.07;3.92;;;10.40;71.80;;;;;;5091464;28;20467;-67
2021/05/26 04:34:47;;;;;;;11.90;3.22;;;10.40;71.50;;;;;;5091201;28;20030;-67
2021/05/26 04:37:13;;;;;;;10.70;3.40;;;10.50;71.40;;;;;;5091493;28;20027;-66
2021/05/26 04:39:38;;;;;;;7.13;2.75;;;10.50;71.50;;;;;;5091402;28;20405;-67
2021/05/26 04:42:04;;;;;;;10.57;3.00;;;10.50;71.50;;;;;;5091120;28;20702;-67
2021/05/26 04:44:30;;;;;;;8.07;3.00;;;10.50;71.70;;;;;;5091515;28;20060;-66
2021/05/26 04:46:55;;;;;;;11.65;3.05;;;10.50;72.10;;;;;;5090943;28;20403;-66
2021/05/26 04:49:21;;;;;;;8.40;3.13;;;10.50;71.80;;;;;;5090908;28;20480;-66
2021/05/26 04:51:46;;;;;;;7.53;3.42;;;10.50;71.80;;;;;;5091096;28;20390;-66
2021/05/26 04:54:12;;;;;;;10.35;3.08;;;10.50;71.90;;;;;;5090997;28;20473;-66
2021/05/26 04:56:37;;;;;;;10.25;4.00;;;10.50;71.50;;;;;;5084783;28;20482;-62
2021/05/26 04:59:03;;;;;;;6.30;2.80;;;10.50;71.50;;;;;;5080173;28;20508;-62
2021/05/26 05:01:29;;;;;;;9.10;2.92;;;10.50;71.40;;;;;;5082829;28;20027;-60
2021/05/26 05:03:54;;;;;;;12.23;3.05;;;10.60;70.60;;;;;;5090581;28;20035;-59
2021/05/26 05:06:22;;;;;;;12.43;2.92;;;10.60;70.60;;;;;;5066256;28;20024;-61
2021/05/26 05:08:48;;;;;;;7.50;2.53;;;10.60;70.30;;;;;;5054763;28;20027;-62
2021/05/26 05:11:14;;;;;;;7.25;3.20;;;10.70;69.80;;;;;;5060303;28;20104;-63
2021/05/26 05:13:39;;;;;;;8.77;2.47;;;10.60;69.60;;;;;;5055533;28;20300;-62
2021/05/26 05:16:05;;;;;;;4.82;2.10;;;10.60;69.50;;;;;;5050197;28;20099;-59
2021/05/26 05:18:30;;;;;;;4.07;2.30;;;10.70;69.70;;;;;;5063853;28;20025;-58
2021/05/26 05:20:56;;;;;;;7.13;2.30;;;10.70;69.50;;;;;;5059582;28;20237;-60
2021/05/26 05:23:21;;;;;;;6.47;2.53;;;10.80;68.70;;;;;;5058172;28;20042;-60
2021/05/26 05:25:47;;;;;;;7.63;2.35;;;10.80;68.50;;;;;;5055915;28;20055;-59
2021/05/26 05:28:13;;;;;;;7.70;2.28;;;10.90;68.30;;;;;;5058209;28;20112;-60
2021/05/26 05:30:38;;;;;;;3.45;2.08;;;10.90;68.00;;;;;;5069906;28;20050;-59
2021/05/26 05:33:04;;;;;;;6.70;2.03;;;11.00;67.40;;;;;;5071223;28;20379;-60
2021/05/26 05:35:29;;;;;;;11.52;2.92;;;11.00;67.30;;;;;;5081472;28;20066;-61
2021/05/26 05:37:56;;;;;;;7.93;2.10;;;11.10;67.70;;;;;;5064381;28;20062;-61
2021/05/26 05:40:22;;;;;;;9.77;2.65;;;11.10;66.90;;;;;;5073592;28;20551;-60
2021/05/26 05:42:47;;;;;;;6.47;2.20;;;11.00;66.70;;;;;;5073057;28;20289;-61
2021/05/26 05:45:13;;;;;;;4.75;1.60;;;11.00;66.80;;;;;;5064925;28;20811;-60
2021/05/26 05:47:39;;;;;;;6.38;1.70;;;11.00;66.80;;;;;;5080459;28;20101;-60
2021/05/26 05:50:14;;;;;;;6.78;2.05;;;11.00;66.90;;;;;;5079341;28;20075;-61
2021/05/26 05:52:40;;;;;;;4.22;2.08;;;11.10;66.50;;;;;;5074941;28;20024;-60
2021/05/26 05:55:06;;;;;;;5.47;2.00;;;11.10;66.30;;;;;;5071699;28;20029;-60
2021/05/26 05:57:32;;;;;;;6.05;1.80;;;11.20;66.20;;;;;;5081840;28;20046;-62
2021/05/26 05:59:57;;;;;;;4.25;1.55;;;11.20;66.10;;;;;;5069406;28;20024;-62
2021/05/26 06:02:23;;;;;;;3.72;1.65;;;11.30;65.90;;;;;;5077209;28;20020;-62
2021/05/26 06:04:49;;;;;;;5.55;1.90;;;11.30;64.90;;;;;;5076314;28;20077;-62
2021/05/26 06:07:17;;;;;;;7.97;1.83;;;11.40;65.60;;;;;;5063340;28;20075;-67
2021/05/26 06:09:43;;;;;;;5.05;1.83;;;11.50;64.50;;;;;;5056916;28;20491;-63
2021/05/26 06:12:09;;;;;;;3.90;1.33;;;11.40;65.10;;;;;;5057925;28;20017;-64
2021/05/26 06:14:34;;;;;;;4.10;1.67;;;11.50;64.60;;;;;;5061062;28;20017;-63
2021/05/26 06:17:00;;;;;;;2.60;1.50;;;11.60;64.00;;;;;;5064832;28;20034;-63
2021/05/26 06:19:25;;;;;;;5.32;1.67;;;11.60;63.90;;;;;;5056108;28;20036;-63
2021/05/26 06:21:51;;;;;;;4.18;1.42;;;11.40;63.90;;;;;;5058938;28;20105;-61
2021/05/26 06:24:16;;;;;;;3.17;1.80;;;11.40;63.90;;;;;;5058906;28;20047;-62
2021/05/26 06:26:42;;;;;;;2.83;1.50;;;11.40;64.60;;;;;;5062352;28;20025;-61
2021/05/26 06:29:08;;;;;;;2.38;1.60;;;11.60;64.50;;;;;;5061646;28;20479;-62
2021/05/26 06:31:34;;;;;;;2.90;1.60;;;11.60;63.90;;;;;;5063960;28;20055;-62
2021/05/26 06:33:59;;;;;;;4.53;1.50;;;11.70;63.80;;;;;;5057810;28;20028;-62
2021/05/26 06:36:25;;;;;;;6.35;1.73;;;11.70;63.70;;;;;;5057442;28;20017;-62
2021/05/26 06:38:50;;;;;;;8.30;1.85;;;11.60;63.40;;;;;;5058074;28;20483;-62
2021/05/26 06:41:16;;;;;;;3.47;1.40;;;11.70;63.80;;;;;;5060190;28;20419;-62
2021/05/26 06:43:42;;;;;;;7.32;1.83;;;11.70;63.70;;;;;;5059151;28;20044;-62
2021/05/26 06:46:07;;;;;;;4.97;1.35;;;11.70;63.90;;;;;;5058432;28;20045;-63
2021/05/26 06:48:33;;;;;;;8.20;1.90;;;11.70;63.00;;;;;;5059965;28;20100;-62
2021/05/26 06:50:58;;;;;;;3.67;1.40;;;11.70;63.20;;;;;;5064706;28;20027;-62
2021/05/26 06:53:25;;;;;;;4.55;1.95;;;11.70;63.20;;;;;;5061447;28;20079;-61
2021/05/26 06:55:51;;;;;;;6.00;1.67;;;11.80;63.70;;;;;;5063913;28;20086;-61
2021/05/26 06:58:16;;;;;;;3.63;1.70;;;11.90;63.10;;;;;;5067910;28;20066;-63
2021/05/26 07:00:42;;;;;;;3.92;1.35;;;11.90;62.70;;;;;;5084525;28;20032;-65
2021/05/26 07:03:09;;;;;;;7.47;1.30;;;11.90;63.00;;;;;;5073518;28;20024;-65
2021/05/26 07:05:35;;;;;;;4.90;1.70;;;12.00;62.80;;;;;;5079721;28;20059;-65
2021/05/26 07:08:00;;;;;;;3.70;1.50;;;12.00;62.50;;;;;;5080227;28;20375;-65
2021/05/26 07:10:26;;;;;;;3.95;1.38;;;12.00;62.30;;;;;;5072760;28;20532;-65
2021/05/26 07:12:51;;;;;;;3.17;1.50;;;12.10;61.80;;;;;;5084373;28;20685;-64
2021/05/26 07:15:18;;;;;;;4.53;1.92;;;12.20;61.80;;;;;;5074159;28;20020;-64
2021/05/26 07:17:44;;;;;;;5.32;1.50;;;12.30;61.60;;;;;;5078468;28;20025;-65
2021/05/26 07:20:10;;;;;;;3.45;1.38;;;12.30;61.50;;;;;;5080457;28;20097;-65
2021/05/26 07:22:36;;;;;;;6.35;1.65;;;12.40;60.90;;;;;;5067521;28;20482;-63
2021/05/26 07:25:02;;;;;;;3.17;1.20;;;12.40;60.40;;;;;;5084383;28;20032;-60
2021/05/26 07:27:27;;;;;;;6.07;1.50;;;12.60;59.90;;;;;;5074931;28;20386;-63
2021/05/26 07:29:53;;;;;;;3.00;1.50;;;12.60;60.40;;;;;;5076573;28;20017;-60
2021/05/26 07:32:19;;;;;;;4.97;1.30;;;12.80;59.50;;;;;;5067587;28;20028;-71
2021/05/26 07:34:44;;;;;;;3.47;1.33;;;12.90;59.50;;;;;;5083245;28;20478;-62
2021/05/26 07:37:10;;;;;;;2.50;1.55;;;13.00;59.30;;;;;;5072969;28;20031;-61
2021/05/26 07:39:36;;;;;;;3.17;1.20;;;13.20;58.60;;;;;;5084211;28;20019;-59
2021/05/26 07:42:06;;;;;;;3.47;1.40;;;13.40;58.70;;;;;;5074510;28;20021;-60
2021/05/26 07:44:31;;;;;;;3.83;1.35;;;13.50;57.70;;;;;;5083702;28;20047;-61
2021/05/26 07:46:57;;;;;;;4.18;1.40;;;13.60;57.60;;;;;;5054154;28;20132;-61
2021/05/26 07:49:22;;;;;;;3.97;1.02;;;13.90;57.20;;;;;;5080218;28;20464;-62
2021/05/26 07:51:53;;;;;;;3.42;1.30;;;14.00;57.00;;;;;;5072406;28;20474;-62
2021/05/26 07:54:21;;;;;;;3.08;1.25;;;14.50;56.40;;;;;;5050794;28;20028;-61
2021/05/26 07:56:47;;;;;;;2.88;1.20;;;15.20;54.70;;;;;;5062001;28;20024;-64
2021/05/26 07:59:12;;;;;;;3.28;1.10;;;15.70;53.40;;;;;;5056663;28;20029;-63
2021/05/26 08:01:38;;;;;;;2.60;0.93;;;16.10;52.70;;;;;;5058463;28;20027;-61
2021/05/26 08:04:04;;;;;;;4.28;1.65;;;16.50;51.70;;;;;;5062805;28;20148;-62
2021/05/26 08:06:29;;;;;;;1.30;0.77;;;16.10;51.70;;;;;;5062249;28;20025;-63
2021/05/26 08:08:55;;;;;;;1.13;0.90;;;15.70;51.60;;;;;;5056877;28;20510;-63
2021/05/26 08:11:21;;;;;;;1.35;1.20;;;15.50;52.60;;;;;;5060515;28;20371;-62
2021/05/26 08:13:46;;;;;;;3.17;0.95;;;15.80;51.80;;;;;;5057830;28;20028;-63
2021/05/26 08:16:12;;;;;;;2.67;1.13;;;15.60;52.30;;;;;;5069821;28;20475;-57
2021/05/26 08:18:37;;;;;;;2.30;1.00;;;15.30;52.60;;;;;;5071036;28;20040;-57
2021/05/26 08:21:03;;;;;;;1.60;0.80;;;15.50;52.10;;;;;;5071472;28;20119;-57
2021/05/26 08:23:29;;;;;;;3.80;0.88;;;16.00;51.00;;;;;;5068976;28;20040;-58
2021/05/26 08:25:54;;;;;;;1.40;1.13;;;16.00;50.80;;;;;;5070708;28;20051;-58
2021/05/26 08:28:20;;;;;;;3.65;0.82;;;16.20;50.20;;;;;;5070903;28;20090;-57
2021/05/26 08:30:45;;;;;;;1.83;0.95;;;16.10;49.60;;;;;;5070721;28;20024;-57
2021/05/26 08:33:12;;;;;;;1.50;0.82;;;15.90;50.60;;;;;;5064899;28;20021;-64
2021/05/26 08:35:37;;;;;;;2.38;0.63;;;15.50;51.00;;;;;;5065358;28;20033;-64
2021/05/26 08:38:03;;;;;;;1.73;1.17;;;15.20;51.40;;;;;;5078715;28;20020;-63
2021/05/26 08:40:29;;;;;;;2.15;0.90;;;14.70;52.80;;;;;;5068990;28;20425;-64
2021/05/26 08:42:54;;;;;;;1.88;0.80;;;14.60;52.70;;;;;;5079566;28;20052;-64
2021/05/26 08:45:20;;;;;;;1.83;0.68;;;14.30;52.70;;;;;;5076108;28;20102;-63
2021/05/26 08:47:46;;;;;;;2.25;0.93;;;14.30;53.00;;;;;;5071113;28;20052;-63
2021/05/26 08:50:13;;;;;;;1.38;1.10;;;14.50;53.10;;;;;;5081498;28;20422;-63
2021/05/26 08:52:40;;;;;;;6.80;1.40;;;14.50;53.00;;;;;;5058573;28;20013;-64
2021/05/26 08:55:06;;;;;;;2.50;1.40;;;14.50;53.10;;;;;;5075360;28;20575;-63
2021/05/26 08:57:32;;;;;;;2.92;1.00;;;14.50;53.20;;;;;;5078240;28;20024;-63
2021/05/26 08:59:57;;;;;;;2.22;1.25;;;14.60;52.00;;;;;;5061701;28;20083;-64
2021/05/26 09:02:23;;;;;;;2.30;1.10;;;14.80;52.30;;;;;;5081383;28;20537;-65
2021/05/26 09:04:48;;;;;;;1.05;0.90;;;14.90;51.30;;;;;;5072613;28;20559;-64
2021/05/26 09:07:15;;;;;;;6.38;1.35;;;14.90;51.90;;;;;;5075605;28;20028;-64
2021/05/26 09:09:58;;;;;;;3.08;1.35;;;15.00;51.80;;;;;;5078696;28;20078;-62
2021/05/26 09:12:28;;;;;;;4.35;1.10;;;14.80;51.90;;;;;;5068091;28;20040;-62
2021/05/26 09:14:55;;;;;;;1.77;1.15;;;14.80;52.80;;;;;;5078568;28;20021;-62
2021/05/26 09:17:20;;;;;;;2.65;1.27;;;14.70;52.10;;;;;;5076450;28;20115;-63
2021/05/26 09:19:46;;;;;;;1.13;0.80;;;14.70;52.30;;;;;;5070853;28;20111;-63
2021/05/26 09:22:13;;;;;;;1.35;1.00;;;14.60;52.20;;;;;;5062111;28;20107;-63
2021/05/26 09:24:38;;;;;;;2.75;0.95;;;14.60;52.50;;;;;;5055313;28;20032;-63
2021/05/26 09:27:08;;;;;;;2.47;1.17;;;14.70;52.40;;;;;;5054663;28;20044;-63
2021/05/26 09:29:40;;;;;;;2.70;1.23;;;14.60;52.00;;;;;;5054035;28;20032;-62
2021/05/26 09:32:14;;;;;;;1.45;1.35;;;14.50;51.70;;;;;;5057119;28;20025;-63
2021/05/26 09:34:42;;;;;;;3.25;1.25;;;14.50;52.50;;;;;;5067943;28;20074;-63
2021/05/26 09:37:11;;;;;;;1.20;1.00;;;14.30;53.00;;;;;;5057247;28;20052;-63
2021/05/26 09:40:03;;;;;;;3.72;1.23;;;14.30;53.20;;;;;;5030589;28;20058;-63
2021/05/26 09:42:36;;;;;;;2.70;1.30;;;14.60;52.60;;;;;;5052773;28;20035;-63
2021/05/26 09:45:12;;;;;;;1.50;0.80;;;14.80;51.50;;;;;;5062257;28;20059;-64
2021/05/26 09:47:40;;;;;;;2.35;1.60;;;14.80;51.20;;;;;;5071909;28;20044;-62
2021/05/26 09:50:24;;;;;;;1.88;0.98;;;15.00;51.60;;;;;;5081180;28;20438;-66
2021/05/26 09:53:05;;;;;;;1.30;1.20;;;15.30;50.50;;;;;;5059292;28;20163;-65
2021/05/26 09:55:33;;;;;;;1.87;1.10;;;15.30;50.60;;;;;;5062881;28;20036;-66
2021/05/26 09:57:59;;;;;;;3.10;2.08;;;15.20;50.40;;;;;;5060542;28;20270;-66
2021/05/26 10:00:26;;;;;;;4.10;1.13;;;15.20;51.30;;;;;;5079041;28;20032;-64
2021/05/26 10:02:51;;;;;;;1.05;0.90;;;15.20;50.80;;;;;;5054254;28;20029;-65
2021/05/26 10:05:19;;;;;;;1.60;0.90;;;15.20;51.60;;;;;;5062863;28;20545;-64
2021/05/26 10:07:56;;;;;;;1.70;0.82;;;15.40;50.60;;;;;;5056315;28;20025;-64
2021/05/26 10:10:22;;;;;;;7.85;1.30;;;15.80;50.60;;;;;;5062717;28;20614;-63
2021/05/26 10:12:56;;;;;;;1.88;1.00;;;16.80;49.10;;;;;;5059216;28;20028;-63
2021/05/26 10:15:23;;;;;;;2.13;0.90;;;17.70;47.40;;;;;;5057648;28;20037;-62
2021/05/26 10:17:50;;;;;;;3.13;1.17;;;18.10;46.30;;;;;;5058221;28;20244;-62
2021/05/26 10:20:17;;;;;;;1.75;1.00;;;17.70;45.90;;;;;;5061732;28;20051;-63
2021/05/26 10:22:43;;;;;;;2.05;0.98;;;17.00;47.00;;;;;;5078949;28;20024;-62
2021/05/26 10:25:11;;;;;;;1.60;0.95;;;16.50;47.50;;;;;;5061447;28;20033;-62
2021/05/26 10:27:42;;;;;;;2.40;1.20;;;16.00;48.90;;;;;;5060396;28;20028;-62
2021/05/26 10:30:08;;;;;;;2.58;1.05;;;15.70;49.90;;;;;;5065202;28;20676;-62
2021/05/26 10:32:59;;;;;;;3.03;1.30;;;15.80;50.60;;;;;;5064289;28;20047;-62
2021/05/26 10:35:26;;;;;;;2.05;1.40;;;15.90;50.20;;;;;;5061265;28;20024;-62
2021/05/26 10:38:04;;;;;;;2.42;1.25;;;16.60;49.70;;;;;;5062423;28;20032;-63
2021/05/26 10:40:43;;;;;;;5.15;1.00;;;17.10;48.20;;;;;;5063304;28;20101;-62
2021/05/26 10:43:16;;;;;;;2.45;1.20;;;17.50;46.90;;;;;;5079087;28;20050;-62
2021/05/26 10:45:41;;;;;;;7.70;1.27;;;17.60;45.70;;;;;;5082069;28;20376;-61
2021/05/26 10:48:07;;;;;;;1.48;1.10;;;17.80;46.10;;;;;;5071144;28;20036;-60
2021/05/26 10:50:48;;;;;;;2.30;0.93;;;18.10;45.60;;;;;;5082609;28;20140;-59
2021/05/26 10:53:15;;;;;;;1.95;1.08;;;18.10;45.50;;;;;;5077635;28;20025;-59
2021/05/26 10:55:53;;;;;;;3.45;1.52;;;17.80;45.80;;;;;;5062465;28;20033;-59
2021/05/26 10:58:34;;;;;;;2.17;1.27;;;17.70;46.30;;;;;;5063026;28;20020;-60
2021/05/26 11:01:05;;;;;;;3.22;1.65;;;17.30;46.60;;;;;;5065773;28;20051;-59
2021/05/26 11:03:41;;;;;;;4.20;1.30;;;17.20;46.90;;;;;;5058893;28;20119;-59
2021/05/26 11:06:13;;;;;;;1.45;1.13;;;16.90;48.00;;;;;;5058146;28;20028;-59
2021/05/26 11:11:25;;;;;;;0.75;0.75;;;17.20;47.20;;;;;;5057965;28;20051;-60
2021/05/26 11:14:00;;;;;;;3.78;1.52;;;17.30;47.70;;;;;;5051459;28;20021;-58
2021/05/26 11:16:57;;;;;;;2.42;1.20;;;17.30;48.10;;;;;;5084073;28;20032;-59
2021/05/26 11:19:24;;;;;;;4.57;1.85;;;17.20;48.10;;;;;;5078754;28;20100;-58
2021/05/26 11:21:57;;;;;;;4.28;1.60;;;17.60;48.10;;;;;;5070978;28;20020;-60
2021/05/26 11:24:23;;;;;;;1.42;1.20;;;17.80;48.10;;;;;;5084687;28;20642;-59
2021/05/26 11:26:49;;;;;;;3.28;1.20;;;17.60;47.30;;;;;;5073889;28;20102;-59
2021/05/26 11:29:34;;;;;;;2.95;1.50;;;17.30;48.30;;;;;;5077077;28;20745;-58
2021/05/26 11:32:24;;;;;;;2.85;1.50;;;16.90;49.30;;;;;;5073727;28;20108;-60
2021/05/26 11:34:50;;;;;;;1.67;1.13;;;16.40;49.70;;;;;;5070256;28;20510;-59
2021/05/26 11:37:30;;;;;;;2.20;1.35;;;16.20;50.00;;;;;;5077322;28;20169;-63
2021/05/26 11:39:56;;;;;;;2.63;1.00;;;16.20;50.10;;;;;;5063538;28;20059;-60
2021/05/26 11:42:26;;;;;;;2.97;1.30;;;16.10;50.20;;;;;;5073444;28;20071;-59
2021/05/26 11:44:59;;;;;;;3.70;1.23;;;16.10;50.10;;;;;;5066044;28;20075;-59
2021/05/26 11:47:35;;;;;;;2.50;1.40;;;16.50;50.00;;;;;;5057024;28;20048;-61
2021/05/26 11:50:17;;;;;;;3.00;1.10;;;16.70;49.80;;;;;;5084430;28;20050;-61
2021/05/26 11:53:01;;;;;;;4.50;1.30;;;16.90;48.40;;;;;;5081335;28;20054;-58
2021/05/26 11:55:27;;;;;;;11.80;1.52;;;16.90;48.40;;;;;;5066677;28;20059;-61
2021/05/26 11:57:53;;;;;;;2.33;1.15;;;16.80;49.00;;;;;;5067401;28;20048;-63
2021/05/26 12:00:29;;;;;;;1.10;0.90;;;16.70;49.30;;;;;;5065554;28;20467;-62
2021/05/26 12:03:00;;;;;;;2.58;1.70;;;16.80;49.50;;;;;;5065499;28;20040;-60
2021/05/26 12:05:46;;;;;;;2.70;1.17;;;16.70;50.30;;;;;;5057751;28;20408;-63
2021/05/26 12:08:28;;;;;;;2.97;1.52;;;16.90;50.00;;;;;;5062315;28;20060;-60
2021/05/26 12:11:01;;;;;;;2.55;1.20;;;17.20;49.00;;;;;;5061093;28;20025;-61
2021/05/26 12:13:31;;;;;;;2.08;1.27;;;18.10;47.70;;;;;;5059175;28;20025;-62
2021/05/26 12:15:58;;;;;;;3.53;1.23;;;18.50;46.60;;;;;;5057329;28;20017;-60
2021/05/26 12:18:24;;;;;;;5.13;1.33;;;18.30;47.20;;;;;;5058921;28;20029;-62
2021/05/26 12:20:50;;;;;;;2.78;1.40;;;18.40;46.00;;;;;;5059666;28;20667;-62
2021/05/26 12:23:49;;;;;;;3.35;1.42;;;18.00;47.10;;;;;;5065013;28;20129;-61
2021/05/26 12:26:35;;;;;;;3.70;1.35;;;17.90;47.60;;;;;;5047828;28;20097;-64
2021/05/26 12:29:11;;;;;;;1.80;1.42;;;17.80;47.40;;;;;;5059529;28;20032;-62
2021/05/26 12:31:40;;;;;;;6.80;1.67;;;17.50;47.80;;;;;;5059302;28;20013;-63
2021/05/26 12:34:13;;;;;;;2.95;1.45;;;17.50;48.50;;;;;;5058785;28;20036;-60
2021/05/26 12:36:49;;;;;;;1.92;1.40;;;17.90;48.10;;;;;;5067726;28;20040;-60
2021/05/26 12:39:14;;;;;;;3.95;1.65;;;18.10;46.50;;;;;;5077259;28;20020;-60
2021/05/26 12:41:41;;;;;;;1.75;1.63;;;17.40;47.30;;;;;;5050171;28;20028;-59
2021/05/26 12:44:07;;;;;;;2.92;1.48;;;16.80;48.00;;;;;;5037106;28;20456;-64
2021/05/26 12:46:45;;;;;;;5.63;2.10;;;16.50;49.80;;;;;;5049539;28;20047;-59
2021/05/26 12:49:29;;;;;;;6.05;2.08;;;16.40;54.60;;;;;;5048976;28;20024;-61
2021/05/26 12:51:55;;;;;;;3.75;2.40;;;16.30;54.10;;;;;;5057057;28;20084;-65
2021/05/26 12:54:21;;;;;;;7.40;2.70;;;16.50;57.10;;;;;;5060289;28;20016;-65